Terminal Aerodrome Forecast
Issued by NWS

Home | Current Version | Previous Version | Text Only | Print | Product List | Glossary On
Versions: 1 2 3 4 5 6 7 8 9 10 11 12 13 14 15 16 17 18 19 20 21 22 23 24
228
FTUS46 KMTR 231131
TAFSFO
TAF
KSFO 231131Z 2312/2418 28008KT P6SM SCT200
     FM231600 05005KT P6SM SCT200
     FM232000 31009KT P6SM FEW200
     FM232200 31017KT P6SM FEW200
     FM240600 28010KT P6SM SCT200
     FM240800 28005KT P6SM FEW015 SCT200=

USA.gov is the U.S. government's official web portal to all federal, state and local government web resources and services.